Time;durP1;ratioP1;P1;durP2;ratioP2;P2;SDS_P1;SDS_P2;PMS_P1;PMS_P2;Temp;Humidity;BMP_temperature;BMP_pressure;BME280_temperature;BME280_humidity;BME280_pressure;Samples;Min_cycle;Max_cycle;Signal;HPM_P1;HPM_P2
2021/11/22 00:01:51;;;;;;;66.03;34.50;;;;;;;;;;5021691;28;20409;-82
2021/11/22 00:04:18;;;;;;;68.13;37.17;;;;;;;;;;5022002;28;20410;-82
2021/11/22 00:06:45;;;;;;;69.72;36.90;;;;;;;;;;5018935;28;20833;-83
2021/11/22 00:09:11;;;;;;;66.72;35.95;;;;;;;;;;5024565;28;20404;-83
2021/11/22 00:11:38;;;;;;;74.38;37.33;;;;;;;;;;5023374;28;20401;-83
2021/11/22 00:14:05;;;;;;;72.65;37.92;;;;;;;;;;5021434;28;20403;-83
2021/11/22 00:16:32;;;;;;;69.30;37.10;;;;;;;;;;5023578;28;20411;-83
2021/11/22 00:19:00;;;;;;;71.78;37.45;;;;;;;;;;5024111;28;20401;-83
2021/11/22 00:21:27;;;;;;;74.50;38.58;;;;;;;;;;5021251;28;20516;-83
2021/11/22 00:23:54;;;;;;;75.13;39.43;;;;;;;;;;5021849;28;20396;-83
2021/11/22 00:26:21;;;;;;;78.10;38.90;;;;;;;;;;5022904;28;20934;-83
2021/11/22 00:28:47;;;;;;;72.05;38.20;;;;;;;;;;5023145;28;20472;-83
2021/11/22 00:31:14;;;;;;;72.63;38.37;;;;;;;;;;5045067;28;20412;-83
2021/11/22 00:33:43;;;;;;;69.75;37.53;;;;;;;;;;5034663;28;20404;-83
2021/11/22 00:36:12;;;;;;;71.28;38.05;;;;;;;;;;5022508;28;20829;-83
2021/11/22 00:38:38;;;;;;;65.75;37.67;;;;;;;;;;5024226;28;20455;-83
2021/11/22 00:41:07;;;;;;;71.53;36.75;;;;;;;;;;5024348;28;20388;-84
2021/11/22 00:43:33;;;;;;;71.68;37.67;;;;;;;;;;5021166;28;20437;-84
2021/11/22 00:46:00;;;;;;;69.85;36.22;;;;;;;;;;5023922;28;21306;-83
2021/11/22 00:48:27;;;;;;;70.07;37.30;;;;;;;;;;5023606;28;20481;-83
2021/11/22 00:50:55;;;;;;;72.10;36.85;;;;;;;;;;5022176;28;20788;-83
2021/11/22 00:53:23;;;;;;;73.53;37.25;;;;;;;;;;5021905;28;20423;-84
2021/11/22 00:55:50;;;;;;;66.68;35.55;;;;;;;;;;5022625;28;20882;-83
2021/11/22 00:58:17;;;;;;;71.32;37.45;;;;;;;;;;5022421;28;20508;-83
2021/11/22 01:00:44;;;;;;;72.17;36.67;;;;;;;;;;5022856;28;20433;-83
2021/11/22 01:03:11;;;;;;;73.10;36.72;;;;;;;;;;5021873;28;21197;-84
2021/11/22 01:05:38;;;;;;;72.80;37.53;;;;;;;;;;5020325;28;20458;-84
2021/11/22 01:08:05;;;;;;;72.35;38.38;;;;;;;;;;5022294;28;20402;-83
2021/11/22 01:10:34;;;;;;;70.20;37.22;;;;;;;;;;5020917;28;20811;-83
2021/11/22 01:13:01;;;;;;;69.00;36.47;;;;;;;;;;5022392;28;20425;-83
2021/11/22 01:15:28;;;;;;;67.97;36.40;;;;;;;;;;5025253;28;20427;-83
2021/11/22 01:17:55;;;;;;;69.03;36.13;;;;;;;;;;5022422;28;20423;-82
2021/11/22 01:20:29;;;;;;;68.55;36.83;;;;;;;;;;5024465;28;20918;-83
2021/11/22 01:22:57;;;;;;;75.35;37.97;;;;;;;;;;5023742;28;25125;-83
2021/11/22 01:25:24;;;;;;;69.10;36.92;;;;;;;;;;5024697;28;20413;-83
2021/11/22 01:27:53;;;;;;;71.75;37.55;;;;;;;;;;5025517;28;20415;-83
2021/11/22 01:30:20;;;;;;;71.83;36.53;;;;;;;;;;5024579;28;20829;-83
2021/11/22 01:32:47;;;;;;;69.85;36.47;;;;;;;;;;5023940;28;20470;-83
2021/11/22 01:35:14;;;;;;;72.40;38.95;;;;;;;;;;5023800;28;20463;-83
2021/11/22 01:37:41;;;;;;;68.88;35.88;;;;;;;;;;5024339;28;20429;-83
2021/11/22 01:40:10;;;;;;;71.57;37.85;;;;;;;;;;5026452;28;20896;-84
2021/11/22 01:42:38;;;;;;;72.47;37.22;;;;;;;;;;5025074;28;20399;-83
2021/11/22 01:45:08;;;;;;;70.10;36.55;;;;;;;;;;5027139;28;20894;-83
2021/11/22 01:47:35;;;;;;;72.55;38.83;;;;;;;;;;5026903;28;20417;-83
2021/11/22 01:50:02;;;;;;;70.95;37.75;;;;;;;;;;5020682;28;20413;-83
2021/11/22 01:52:29;;;;;;;71.32;38.47;;;;;;;;;;5023822;28;20953;-82
2021/11/22 01:54:56;;;;;;;72.10;37.95;;;;;;;;;;5023183;28;20397;-83
2021/11/22 01:57:22;;;;;;;66.15;35.78;;;;;;;;;;5020384;28;20425;-84
2021/11/22 01:59:49;;;;;;;71.53;38.23;;;;;;;;;;5025311;28;20485;-83
2021/11/22 02:02:18;;;;;;;68.40;37.20;;;;;;;;;;5019537;28;20411;-83
2021/11/22 02:04:44;;;;;;;70.55;36.38;;;;;;;;;;5024513;28;20481;-83
2021/11/22 02:07:11;;;;;;;69.85;37.15;;;;;;;;;;5026705;28;20409;-83
2021/11/22 02:09:38;;;;;;;67.18;36.50;;;;;;;;;;5026094;28;21316;-83
2021/11/22 02:12:06;;;;;;;65.70;35.60;;;;;;;;;;5025852;28;20470;-83
2021/11/22 02:14:33;;;;;;;65.22;36.55;;;;;;;;;;5025004;28;20396;-83
2021/11/22 02:17:00;;;;;;;66.05;35.33;;;;;;;;;;5025550;28;20417;-84
2021/11/22 02:19:28;;;;;;;63.92;35.60;;;;;;;;;;5024488;28;20445;-83
2021/11/22 02:21:56;;;;;;;67.70;35.25;;;;;;;;;;5026108;28;20423;-83
2021/11/22 02:24:23;;;;;;;65.78;36.88;;;;;;;;;;5026066;28;20424;-83
2021/11/22 02:26:50;;;;;;;65.97;36.08;;;;;;;;;;5025917;28;20416;-83
2021/11/22 02:29:17;;;;;;;65.25;36.00;;;;;;;;;;5025054;28;20443;-83
2021/11/22 02:31:43;;;;;;;65.07;34.10;;;;;;;;;;5025898;28;20986;-83
2021/11/22 02:34:10;;;;;;;65.75;35.35;;;;;;;;;;5023990;28;20405;-83
2021/11/22 02:36:37;;;;;;;66.22;35.20;;;;;;;;;;5026174;28;20421;-83
2021/11/22 02:39:06;;;;;;;64.50;35.58;;;;;;;;;;5023359;28;20950;-83
2021/11/22 02:41:34;;;;;;;64.53;34.88;;;;;;;;;;5023889;28;21187;-83
2021/11/22 02:44:02;;;;;;;65.03;36.90;;;;;;;;;;5026060;28;20500;-82
2021/11/22 02:46:29;;;;;;;66.63;36.78;;;;;;;;;;5025633;28;20876;-83
2021/11/22 02:48:56;;;;;;;68.55;36.80;;;;;;;;;;5025174;28;20392;-83
2021/11/22 02:51:23;;;;;;;68.45;37.38;;;;;;;;;;5023056;28;20855;-83
2021/11/22 02:53:58;;;;;;;68.95;36.85;;;;;;;;;;5025610;28;20412;-83
2021/11/22 02:56:29;;;;;;;68.82;36.20;;;;;;;;;;5024687;28;20401;-83
2021/11/22 02:58:57;;;;;;;67.70;35.28;;;;;;;;;;5027291;28;20761;-83
2021/11/22 03:01:24;;;;;;;68.13;36.38;;;;;;;;;;5024301;28;20403;-83
2021/11/22 03:03:54;;;;;;;74.15;36.83;;;;;;;;;;5025288;28;20407;-82
2021/11/22 03:06:22;;;;;;;66.93;35.20;;;;;;;;;;5023312;28;20627;-82
2021/11/22 03:08:51;;;;;;;69.25;36.00;;;;;;;;;;5025094;28;20901;-83
2021/11/22 03:11:19;;;;;;;65.57;36.20;;;;;;;;;;5023352;28;20424;-83
2021/11/22 03:13:48;;;;;;;67.05;34.88;;;;;;;;;;5022033;28;20498;-83
2021/11/22 03:16:16;;;;;;;68.18;35.45;;;;;;;;;;5024609;28;20441;-83
2021/11/22 03:18:43;;;;;;;68.82;36.13;;;;;;;;;;5023755;28;20481;-83
2021/11/22 03:21:10;;;;;;;72.15;36.55;;;;;;;;;;5024242;28;20447;-82
2021/11/22 03:23:38;;;;;;;70.33;37.37;;;;;;;;;;5026349;28;20701;-83
2021/11/22 03:26:05;;;;;;;68.65;35.78;;;;;;;;;;5022444;28;20818;-82
2021/11/22 03:28:32;;;;;;;70.88;37.97;;;;;;;;;;5021273;28;20415;-83
2021/11/22 03:31:01;;;;;;;70.80;37.55;;;;;;;;;;5026188;28;20456;-83
2021/11/22 03:33:29;;;;;;;71.13;36.88;;;;;;;;;;5024159;28;20458;-83
2021/11/22 03:35:56;;;;;;;69.25;35.58;;;;;;;;;;5037471;28;20501;-83
2021/11/22 03:38:25;;;;;;;66.05;35.15;;;;;;;;;;5035019;28;20785;-83
2021/11/22 03:40:54;;;;;;;69.50;35.42;;;;;;;;;;5022392;28;20956;-83
2021/11/22 03:43:27;;;;;;;68.30;35.42;;;;;;;;;;5025243;28;20465;-84
2021/11/22 03:45:54;;;;;;;67.18;35.75;;;;;;;;;;5025041;28;20423;-83
2021/11/22 03:48:23;;;;;;;67.75;35.72;;;;;;;;;;5024779;28;20404;-83
2021/11/22 03:50:50;;;;;;;69.07;36.53;;;;;;;;;;5023893;28;20494;-84
2021/11/22 03:53:17;;;;;;;59.10;33.80;;;;;;;;;;5025297;28;20401;-83
2021/11/22 03:55:44;;;;;;;62.78;35.00;;;;;;;;;;5028018;28;20402;-83
2021/11/22 03:58:11;;;;;;;64.55;35.55;;;;;;;;;;5025089;28;20424;-83
2021/11/22 04:00:38;;;;;;;61.92;33.80;;;;;;;;;;5024703;28;20401;-84
2021/11/22 04:03:05;;;;;;;64.25;34.83;;;;;;;;;;5025929;28;20408;-84
2021/11/22 04:05:33;;;;;;;61.25;32.90;;;;;;;;;;5022670;28;20438;-84
2021/11/22 04:08:00;;;;;;;56.78;31.30;;;;;;;;;;5025292;28;20835;-84
2021/11/22 04:10:27;;;;;;;58.75;32.03;;;;;;;;;;5024777;28;20405;-84
2021/11/22 04:12:53;;;;;;;57.30;31.08;;;;;;;;;;5024815;28;20978;-84
2021/11/22 04:15:20;;;;;;;56.35;32.40;;;;;;;;;;5024401;28;20400;-83
2021/11/22 04:17:47;;;;;;;58.70;31.38;;;;;;;;;;5024883;28;20424;-83
2021/11/22 04:20:14;;;;;;;56.10;31.27;;;;;;;;;;5018351;28;20504;-83
2021/11/22 04:22:42;;;;;;;56.45;30.98;;;;;;;;;;5025219;28;20409;-84
2021/11/22 04:25:09;;;;;;;51.95;30.30;;;;;;;;;;5024915;28;21029;-83
2021/11/22 04:27:37;;;;;;;54.53;31.77;;;;;;;;;;5024841;28;20455;-83
2021/11/22 04:30:06;;;;;;;50.58;28.92;;;;;;;;;;5020963;28;20411;-83
2021/11/22 04:32:33;;;;;;;51.17;30.40;;;;;;;;;;5017601;28;20431;-83
2021/11/22 04:34:59;;;;;;;51.92;29.08;;;;;;;;;;5022953;28;20398;-84
2021/11/22 04:37:28;;;;;;;54.13;31.15;;;;;;;;;;5024339;28;20824;-83
2021/11/22 04:39:57;;;;;;;50.13;29.25;;;;;;;;;;5024703;28;20422;-83
2021/11/22 04:42:24;;;;;;;50.30;29.57;;;;;;;;;;5019878;28;20414;-83
2021/11/22 04:44:52;;;;;;;50.92;29.08;;;;;;;;;;5024801;28;21039;-83
2021/11/22 04:47:20;;;;;;;51.30;28.43;;;;;;;;;;5024007;28;20436;-83
2021/11/22 04:49:48;;;;;;;51.05;28.35;;;;;;;;;;5048508;23;20410;-85
2021/11/22 04:52:15;;;;;;;53.40;30.45;;;;;;;;;;5075892;28;20822;-86
2021/11/22 04:54:43;;;;;;;51.37;29.20;;;;;;;;;;5081088;28;20402;-85
2021/11/22 04:57:12;;;;;;;52.33;29.80;;;;;;;;;;5073389;28;20406;-85
2021/11/22 04:59:39;;;;;;;51.38;29.77;;;;;;;;;;5073915;28;20469;-86
2021/11/22 05:02:07;;;;;;;50.33;29.05;;;;;;;;;;5076978;28;20432;-86
2021/11/22 05:04:35;;;;;;;52.57;29.33;;;;;;;;;;5063644;28;20534;-86
2021/11/22 05:07:02;;;;;;;49.25;28.15;;;;;;;;;;5063507;28;20413;-85
2021/11/22 05:09:29;;;;;;;49.88;28.40;;;;;;;;;;5071410;28;20402;-87
2021/11/22 05:11:56;;;;;;;49.10;28.20;;;;;;;;;;5070595;28;20900;-86
2021/11/22 05:14:26;;;;;;;49.20;29.45;;;;;;;;;;5065046;28;20760;-86
2021/11/22 05:16:53;;;;;;;53.00;29.15;;;;;;;;;;5066258;28;20893;-86
2021/11/22 05:19:20;;;;;;;52.65;30.10;;;;;;;;;;5068986;28;20497;-85
2021/11/22 05:21:47;;;;;;;53.50;27.95;;;;;;;;;;5071220;28;20408;-86
2021/11/22 05:24:14;;;;;;;48.80;28.35;;;;;;;;;;5068375;28;20405;-85
2021/11/22 05:26:41;;;;;;;50.40;28.88;;;;;;;;;;5065637;28;20409;-85
2021/11/22 05:29:09;;;;;;;50.90;29.10;;;;;;;;;;5064372;28;20452;-86
2021/11/22 05:31:38;;;;;;;48.53;27.63;;;;;;;;;;5064239;28;20885;-86
2021/11/22 05:34:05;;;;;;;49.95;28.25;;;;;;;;;;5061038;28;20427;-86
2021/11/22 05:36:35;;;;;;;51.88;28.80;;;;;;;;;;5064392;28;20485;-86
2021/11/22 05:39:03;;;;;;;47.80;27.80;;;;;;;;;;5065972;28;20418;-86
2021/11/22 05:41:30;;;;;;;50.33;27.52;;;;;;;;;;5072443;28;20888;-86
2021/11/22 05:43:56;;;;;;;50.33;28.67;;;;;;;;;;5062974;28;20409;-85
2021/11/22 05:46:23;;;;;;;46.38;28.17;;;;;;;;;;5071683;28;20428;-86
2021/11/22 05:48:52;;;;;;;48.38;27.40;;;;;;;;;;5057058;28;20460;-86
2021/11/22 05:51:19;;;;;;;48.97;28.05;;;;;;;;;;5061892;28;20409;-86
2021/11/22 05:53:48;;;;;;;48.83;27.20;;;;;;;;;;5061554;28;20394;-86
2021/11/22 05:56:17;;;;;;;50.58;28.20;;;;;;;;;;5064487;28;20398;-86
2021/11/22 05:58:45;;;;;;;48.25;27.80;;;;;;;;;;5062709;28;20462;-86
2021/11/22 06:01:13;;;;;;;50.05;27.88;;;;;;;;;;5065234;28;20412;-86
2021/11/22 06:03:40;;;;;;;50.23;27.60;;;;;;;;;;5062067;28;20532;-86
2021/11/22 06:06:09;;;;;;;49.95;27.27;;;;;;;;;;5055044;28;20401;-86
2021/11/22 06:08:36;;;;;;;49.67;26.58;;;;;;;;;;5064746;28;20742;-87
2021/11/22 06:11:03;;;;;;;51.17;27.15;;;;;;;;;;5058360;28;20398;-86
2021/11/22 06:13:30;;;;;;;51.97;28.52;;;;;;;;;;5066569;28;20412;-86
2021/11/22 06:15:57;;;;;;;50.40;28.95;;;;;;;;;;5065856;28;20393;-86
2021/11/22 06:18:24;;;;;;;50.50;27.42;;;;;;;;;;5063313;28;20425;-86
2021/11/22 06:20:50;;;;;;;48.47;27.77;;;;;;;;;;5060010;28;20409;-86
2021/11/22 06:23:19;;;;;;;50.65;29.50;;;;;;;;;;5054302;28;20413;-86
2021/11/22 06:25:46;;;;;;;53.37;29.03;;;;;;;;;;5056317;28;20418;-86
2021/11/22 06:28:13;;;;;;;51.63;29.08;;;;;;;;;;5062521;28;20694;-86
2021/11/22 06:30:41;;;;;;;50.57;27.50;;;;;;;;;;5056016;28;20420;-85
2021/11/22 06:33:08;;;;;;;53.15;29.15;;;;;;;;;;5055405;28;20953;-85
2021/11/22 06:35:36;;;;;;;55.17;30.27;;;;;;;;;;5056467;28;20405;-86
2021/11/22 06:38:03;;;;;;;54.20;28.83;;;;;;;;;;5052164;28;20446;-86
2021/11/22 06:40:32;;;;;;;56.78;29.88;;;;;;;;;;5059625;28;20405;-89
2021/11/22 06:42:59;;;;;;;54.80;29.70;;;;;;;;;;5068516;28;20431;-85
2021/11/22 06:45:27;;;;;;;51.67;29.02;;;;;;;;;;5059185;28;20416;-90
2021/11/22 06:47:54;;;;;;;55.45;30.00;;;;;;;;;;5059081;28;20588;-87
2021/11/22 06:50:21;;;;;;;52.85;29.27;;;;;;;;;;5064315;28;20762;-87
2021/11/22 06:52:48;;;;;;;51.05;28.50;;;;;;;;;;5080632;28;20404;-87
2021/11/22 06:55:16;;;;;;;50.33;29.33;;;;;;;;;;5063236;28;20901;-87
2021/11/22 06:57:44;;;;;;;53.78;29.25;;;;;;;;;;5060524;28;20954;-87
2021/11/22 07:00:13;;;;;;;55.45;29.40;;;;;;;;;;5063263;28;20434;-87
2021/11/22 07:02:40;;;;;;;52.80;28.63;;;;;;;;;;5070165;28;20404;-87
2021/11/22 07:05:08;;;;;;;47.97;28.05;;;;;;;;;;5062808;28;20767;-86
2021/11/22 07:07:35;;;;;;;52.65;29.15;;;;;;;;;;5074522;28;20406;-87
2021/11/22 07:10:02;;;;;;;54.40;28.10;;;;;;;;;;5063114;28;20402;-87
2021/11/22 07:12:29;;;;;;;51.65;28.27;;;;;;;;;;5063564;28;20417;-87
2021/11/22 07:14:57;;;;;;;53.83;29.23;;;;;;;;;;5066506;28;20769;-87
2021/11/22 07:17:24;;;;;;;52.50;27.73;;;;;;;;;;5065743;28;20398;-87
2021/11/22 07:19:51;;;;;;;55.60;26.25;;;;;;;;;;5064562;28;20471;-87
2021/11/22 07:22:18;;;;;;;52.38;26.10;;;;;;;;;;5064573;28;20463;-87
2021/11/22 07:24:46;;;;;;;49.50;27.05;;;;;;;;;;5069240;28;21122;-87
2021/11/22 07:27:14;;;;;;;48.92;26.20;;;;;;;;;;5063503;28;20431;-86
2021/11/22 07:29:42;;;;;;;49.33;26.93;;;;;;;;;;5070763;28;20423;-87
2021/11/22 07:32:11;;;;;;;46.80;27.00;;;;;;;;;;5068207;28;20516;-88
2021/11/22 07:34:40;;;;;;;45.67;26.17;;;;;;;;;;5064263;28;20406;-88
2021/11/22 07:37:07;;;;;;;43.20;24.95;;;;;;;;;;5059880;28;20459;-87
2021/11/22 07:39:34;;;;;;;40.60;24.80;;;;;;;;;;5060822;28;20508;-87
2021/11/22 07:42:01;;;;;;;42.45;25.40;;;;;;;;;;5062291;28;20792;-87
2021/11/22 07:44:28;;;;;;;42.78;24.33;;;;;;;;;;5070252;28;20789;-88
2021/11/22 07:46:56;;;;;;;42.28;24.52;;;;;;;;;;5065584;28;20463;-88
2021/11/22 07:49:25;;;;;;;42.97;25.27;;;;;;;;;;5066524;28;20925;-88
2021/11/22 07:51:52;;;;;;;41.03;23.90;;;;;;;;;;5081163;28;20437;-88
2021/11/22 07:54:19;;;;;;;38.63;23.25;;;;;;;;;;5083768;28;20884;-88
2021/11/22 07:56:47;;;;;;;41.00;24.20;;;;;;;;;;5063999;28;20406;-89
2021/11/22 07:59:14;;;;;;;39.85;24.23;;;;;;;;;;5065611;28;20425;-89
2021/11/22 08:01:42;;;;;;;41.63;24.42;;;;;;;;;;5070189;28;20466;-88
2021/11/22 08:04:14;;;;;;;44.92;25.55;;;;;;;;;;5061605;28;20413;-88
2021/11/22 08:06:46;;;;;;;42.38;23.67;;;;;;;;;;5059878;28;20954;-88
2021/11/22 08:09:16;;;;;;;41.17;23.75;;;;;;;;;;5067144;28;20402;-88
2021/11/22 08:12:03;;;;;;;41.10;23.60;;;;;;;;;;5070032;28;20423;-88
2021/11/22 08:14:30;;;;;;;39.80;23.45;;;;;;;;;;5062493;28;20915;-88
2021/11/22 08:16:57;;;;;;;39.67;23.13;;;;;;;;;;5066473;28;20403;-88
2021/11/22 08:19:24;;;;;;;39.30;24.03;;;;;;;;;;5063288;28;20430;-88
2021/11/22 08:21:53;;;;;;;38.35;23.30;;;;;;;;;;5061773;28;20915;-88
2021/11/22 08:24:24;;;;;;;40.58;24.58;;;;;;;;;;5057267;28;20424;-87
2021/11/22 08:26:51;;;;;;;39.08;23.50;;;;;;;;;;5065006;28;20881;-88
2021/11/22 08:29:18;;;;;;;40.92;24.92;;;;;;;;;;5073200;28;20407;-88
2021/11/22 08:31:45;;;;;;;41.33;25.85;;;;;;;;;;5069312;28;20912;-88
2021/11/22 08:34:12;;;;;;;39.65;23.65;;;;;;;;;;5059231;28;20411;-88
2021/11/22 08:36:39;;;;;;;39.05;23.45;;;;;;;;;;5072434;28;20822;-89
2021/11/22 08:39:07;;;;;;;42.15;23.98;;;;;;;;;;5060214;28;20433;-88
2021/11/22 08:41:34;;;;;;;38.08;22.92;;;;;;;;;;5061037;28;20410;-88
2021/11/22 08:44:01;;;;;;;36.83;23.15;;;;;;;;;;5065663;28;20392;-88
2021/11/22 08:46:29;;;;;;;36.63;23.10;;;;;;;;;;5061943;28;20410;-88
2021/11/22 08:48:56;;;;;;;41.88;23.33;;;;;;;;;;5063975;28;20412;-88
2021/11/22 08:51:23;;;;;;;39.63;23.20;;;;;;;;;;5066003;28;20413;-88
2021/11/22 08:53:50;;;;;;;39.55;22.98;;;;;;;;;;5064606;28;20402;-88
2021/11/22 08:56:18;;;;;;;41.47;22.63;;;;;;;;;;5066042;28;20402;-88
2021/11/22 08:58:46;;;;;;;37.38;23.02;;;;;;;;;;5064536;28;20446;-88
2021/11/22 09:01:14;;;;;;;39.03;22.45;;;;;;;;;;5075781;28;20423;-88
2021/11/22 09:03:41;;;;;;;41.60;23.25;;;;;;;;;;5063209;28;20936;-88
2021/11/22 09:06:08;;;;;;;43.33;23.08;;;;;;;;;;5064865;28;20423;-88
2021/11/22 09:08:35;;;;;;;38.83;22.77;;;;;;;;;;5064186;28;20467;-87
2021/11/22 09:11:02;;;;;;;38.45;23.00;;;;;;;;;;5091862;28;20404;-88
2021/11/22 09:13:30;;;;;;;35.38;22.02;;;;;;;;;;5068678;28;20437;-88
2021/11/22 09:15:57;;;;;;;37.92;22.85;;;;;;;;;;5073747;28;20536;-88
2021/11/22 09:18:24;;;;;;;37.20;22.45;;;;;;;;;;5066273;28;20409;-88
2021/11/22 09:20:51;;;;;;;37.80;22.58;;;;;;;;;;5068053;28;20400;-88
2021/11/22 09:23:18;;;;;;;34.35;21.85;;;;;;;;;;5068611;28;20409;-88
2021/11/22 09:25:45;;;;;;;36.70;21.93;;;;;;;;;;5060742;28;20471;-88
2021/11/22 09:28:12;;;;;;;38.97;22.40;;;;;;;;;;5070864;28;20497;-88
2021/11/22 09:30:40;;;;;;;41.72;23.80;;;;;;;;;;5068633;28;20402;-88
2021/11/22 09:33:09;;;;;;;42.50;25.65;;;;;;;;;;5068822;28;20388;-88
2021/11/22 09:35:36;;;;;;;41.75;25.55;;;;;;;;;;5067845;28;20795;-88
2021/11/22 09:38:03;;;;;;;40.80;25.40;;;;;;;;;;5072478;28;20405;-88
2021/11/22 09:40:31;;;;;;;43.60;25.63;;;;;;;;;;5072389;28;20914;-88
2021/11/22 09:42:59;;;;;;;42.60;25.83;;;;;;;;;;5068290;28;20405;-88
2021/11/22 09:45:28;;;;;;;43.90;26.25;;;;;;;;;;5058897;28;20403;-88
2021/11/22 09:47:57;;;;;;;45.03;26.63;;;;;;;;;;5059581;28;20528;-88
2021/11/22 09:50:24;;;;;;;50.10;28.88;;;;;;;;;;5064428;28;20424;-88
2021/11/22 09:52:51;;;;;;;43.78;25.70;;;;;;;;;;5064758;28;20409;-88
2021/11/22 09:55:18;;;;;;;43.90;26.27;;;;;;;;;;5077969;28;20889;-88
2021/11/22 09:57:45;;;;;;;42.45;25.73;;;;;;;;;;5061283;28;20398;-87
2021/11/22 10:00:14;;;;;;;42.92;25.38;;;;;;;;;;5068790;28;20421;-88
2021/11/22 10:02:43;;;;;;;40.17;25.58;;;;;;;;;;5065514;28;20408;-88
2021/11/22 10:05:37;;;;;;;42.67;25.40;;;;;;;;;;5064988;28;20413;-88
2021/11/22 10:08:07;;;;;;;41.25;25.30;;;;;;;;;;5068353;28;20426;-88
2021/11/22 10:10:37;;;;;;;38.10;24.58;;;;;;;;;;5070732;28;20410;-88
2021/11/22 10:13:24;;;;;;;38.50;24.75;;;;;;;;;;5083965;28;20400;-88
2021/11/22 10:15:52;;;;;;;44.17;26.90;;;;;;;;;;5076053;28;20397;-88
2021/11/22 10:18:20;;;;;;;44.30;28.63;;;;;;;;;;5056135;28;20426;-89
2021/11/22 10:20:50;;;;;;;59.50;35.57;;;;;;;;;;5066046;28;20456;-89
2021/11/22 10:23:22;;;;;;;42.55;25.48;;;;;;;;;;5067001;28;20459;-89
2021/11/22 10:25:50;;;;;;;51.72;31.20;;;;;;;;;;5061018;28;20402;-90
2021/11/22 10:28:20;;;;;;;52.80;34.38;;;;;;;;;;5065579;28;20406;-89
2021/11/22 10:30:49;;;;;;;43.78;28.15;;;;;;;;;;5078951;28;20617;-89
2021/11/22 10:33:17;;;;;;;43.30;27.15;;;;;;;;;;5062892;28;20468;-89
2021/11/22 10:35:45;;;;;;;42.17;25.85;;;;;;;;;;5068761;28;20406;-89
2021/11/22 10:38:16;;;;;;;44.55;26.42;;;;;;;;;;5068380;28;20514;-88
2021/11/22 10:40:46;;;;;;;40.50;26.55;;;;;;;;;;5066628;28;20424;-89
2021/11/22 10:43:14;;;;;;;41.67;26.40;;;;;;;;;;5062106;28;20943;-89
2021/11/22 10:45:43;;;;;;;44.67;26.95;;;;;;;;;;5067671;28;20468;-89
2021/11/22 10:48:20;;;;;;;46.65;27.20;;;;;;;;;;5067357;28;20394;-89
2021/11/22 10:51:00;;;;;;;43.50;27.10;;;;;;;;;;5062593;28;20422;-89
2021/11/22 10:53:41;;;;;;;40.75;25.52;;;;;;;;;;5065387;28;20401;-89
2021/11/22 10:56:11;;;;;;;41.78;26.85;;;;;;;;;;5062418;28;20405;-89
2021/11/22 10:58:55;;;;;;;40.90;26.97;;;;;;;;;;5061255;28;20467;-89
2021/11/22 11:01:34;;;;;;;42.90;27.50;;;;;;;;;;5069568;28;20410;-90
2021/11/22 11:04:14;;;;;;;40.72;25.95;;;;;;;;;;5064267;28;20417;-89
2021/11/22 11:06:49;;;;;;;40.13;26.40;;;;;;;;;;5063131;28;20405;-89
2021/11/22 11:09:21;;;;;;;40.03;25.67;;;;;;;;;;5067819;28;20413;-89
2021/11/22 11:11:50;;;;;;;38.45;24.45;;;;;;;;;;5065482;28;20398;-89
2021/11/22 11:14:18;;;;;;;37.67;24.98;;;;;;;;;;5066580;28;20829;-90
2021/11/22 11:16:45;;;;;;;37.75;25.50;;;;;;;;;;5071415;28;20497;-90
2021/11/22 11:19:15;;;;;;;37.47;25.40;;;;;;;;;;5059674;28;20796;-89
2021/11/22 11:21:45;;;;;;;37.53;24.33;;;;;;;;;;5066955;28;20413;-90
2021/11/22 11:24:13;;;;;;;39.13;25.33;;;;;;;;;;5067298;28;20389;-90
2021/11/22 11:26:43;;;;;;;38.63;25.63;;;;;;;;;;5067658;28;21120;-90
2021/11/22 11:29:10;;;;;;;40.38;25.95;;;;;;;;;;5061480;28;20398;-90
2021/11/22 11:31:39;;;;;;;38.65;25.42;;;;;;;;;;5064664;28;20489;-90
2021/11/22 11:34:10;;;;;;;41.42;27.00;;;;;;;;;;5066508;28;20406;-90
2021/11/22 11:37:09;;;;;;;40.13;26.60;;;;;;;;;;5072917;28;20390;-89
2021/11/22 11:40:03;;;;;;;40.93;25.97;;;;;;;;;;5059255;28;20414;-89
2021/11/22 11:43:08;;;;;;;34.70;25.10;;;;;;;;;;5056169;28;20404;-90
2021/11/22 11:45:42;;;;;;;39.33;25.45;;;;;;;;;;5043522;28;20409;-90
2021/11/22 11:48:20;;;;;;;40.17;25.52;;;;;;;;;;5066566;28;20406;-88
2021/11/22 11:50:47;;;;;;;41.67;26.10;;;;;;;;;;5063843;28;20411;-90
2021/11/22 11:53:16;;;;;;;39.28;25.85;;;;;;;;;;5081703;28;20505;-89
2021/11/22 11:55:46;;;;;;;36.90;25.00;;;;;;;;;;5068519;28;20528;-89
2021/11/22 11:58:24;;;;;;;39.97;25.63;;;;;;;;;;5080990;28;20750;-90
2021/11/22 12:00:55;;;;;;;34.47;23.80;;;;;;;;;;5085709;28;20416;-90
2021/11/22 12:03:22;;;;;;;37.35;24.42;;;;;;;;;;5076383;28;20409;-89
2021/11/22 12:05:51;;;;;;;34.38;23.65;;;;;;;;;;5084274;28;20445;-90
2021/11/22 12:08:25;;;;;;;35.73;23.93;;;;;;;;;;5078260;28;20406;-90
2021/11/22 12:10:53;;;;;;;31.70;22.75;;;;;;;;;;5085665;28;20405;-90
2021/11/22 12:13:21;;;;;;;32.75;22.40;;;;;;;;;;5077945;28;20418;-90
2021/11/22 12:15:50;;;;;;;35.17;23.40;;;;;;;;;;5074485;28;20406;-89
2021/11/22 12:18:28;;;;;;;33.95;22.58;;;;;;;;;;5079099;28;20563;-93
2021/11/22 12:20:58;;;;;;;32.35;22.85;;;;;;;;;;5081958;28;20416;-86
2021/11/22 12:23:29;;;;;;;31.40;22.08;;;;;;;;;;5073525;28;20401;-87
2021/11/22 12:25:58;;;;;;;30.75;21.70;;;;;;;;;;5077371;28;20414;-87
2021/11/22 12:28:53;;;;;;;32.80;21.90;;;;;;;;;;5083847;28;20470;-94
2021/11/22 12:31:29;;;;;;;29.73;20.70;;;;;;;;;;5084928;28;20537;-88
2021/11/22 12:33:59;;;;;;;26.50;17.58;;;;;;;;;;5081878;28;20408;-87
2021/11/22 12:36:36;;;;;;;23.55;16.40;;;;;;;;;;5075882;28;20818;-86
2021/11/22 12:39:16;;;;;;;22.60;16.95;;;;;;;;;;5073895;28;20412;-87
2021/11/22 12:41:45;;;;;;;20.02;14.98;;;;;;;;;;5076991;28;20420;-84
2021/11/22 12:44:16;;;;;;;20.92;15.15;;;;;;;;;;5060239;28;20409;-85
2021/11/22 12:46:47;;;;;;;24.23;16.60;;;;;;;;;;5072665;28;20415;-86
2021/11/22 12:49:35;;;;;;;28.27;19.60;;;;;;;;;;5075172;28;20422;-86
2021/11/22 12:52:27;;;;;;;28.15;20.13;;;;;;;;;;5071217;28;20428;-87
2021/11/22 12:55:03;;;;;;;32.67;22.42;;;;;;;;;;5059198;28;20417;-89
2021/11/22 12:57:34;;;;;;;30.20;21.42;;;;;;;;;;5074138;28;20399;-88
2021/11/22 13:00:20;;;;;;;29.80;21.20;;;;;;;;;;5076821;28;20465;-89
2021/11/22 13:02:50;;;;;;;30.88;21.15;;;;;;;;;;5066069;28;20422;-88
2021/11/22 13:05:53;;;;;;;31.23;21.13;;;;;;;;;;5066504;28;20467;-87
2021/11/22 13:08:49;;;;;;;32.03;22.35;;;;;;;;;;5058415;28;20397;-87
2021/11/22 13:11:42;;;;;;;32.70;22.67;;;;;;;;;;5081692;28;20439;-87
2021/11/22 13:14:13;;;;;;;32.97;22.48;;;;;;;;;;5070394;28;20475;-86
2021/11/22 13:16:43;;;;;;;32.72;21.48;;;;;;;;;;5088626;28;20872;-88
2021/11/22 13:19:11;;;;;;;31.48;22.60;;;;;;;;;;5081809;28;20437;-88
2021/11/22 13:21:42;;;;;;;35.15;24.10;;;;;;;;;;5091032;28;20430;-85
2021/11/22 13:24:11;;;;;;;36.60;26.20;;;;;;;;;;5078539;28;20914;-88
2021/11/22 13:26:39;;;;;;;34.03;23.95;;;;;;;;;;5082260;28;20406;-88
2021/11/22 13:29:08;;;;;;;50.20;33.05;;;;;;;;;;5081721;28;20395;-87
2021/11/22 13:31:38;;;;;;;40.72;27.33;;;;;;;;;;5081855;28;20961;-88
2021/11/22 13:34:08;;;;;;;31.45;21.95;;;;;;;;;;5080935;28;20403;-87
2021/11/22 13:36:38;;;;;;;30.85;22.08;;;;;;;;;;5079030;28;20412;-87
2021/11/22 13:39:14;;;;;;;34.80;23.77;;;;;;;;;;5065163;28;20402;-86
2021/11/22 13:41:42;;;;;;;33.90;23.25;;;;;;;;;;5078841;28;20416;-87
2021/11/22 13:44:10;;;;;;;60.13;35.33;;;;;;;;;;5082582;28;20404;-88
2021/11/22 13:46:41;;;;;;;31.90;22.60;;;;;;;;;;5082314;28;20495;-87
2021/11/22 13:49:13;;;;;;;31.02;21.77;;;;;;;;;;5087141;28;20404;-87
2021/11/22 13:51:42;;;;;;;37.88;25.02;;;;;;;;;;5079393;28;20415;-87
2021/11/22 13:54:11;;;;;;;35.55;22.92;;;;;;;;;;5079417;28;20438;-87
2021/11/22 13:56:40;;;;;;;30.13;21.08;;;;;;;;;;5080193;28;20469;-87
2021/11/22 13:59:16;;;;;;;29.73;20.50;;;;;;;;;;5084586;28;20404;-87
2021/11/22 14:01:45;;;;;;;43.35;26.15;;;;;;;;;;5087286;28;20422;-88
2021/11/22 14:04:14;;;;;;;114.13;62.43;;;;;;;;;;5078174;28;20672;-87
2021/11/22 14:06:42;;;;;;;47.58;30.30;;;;;;;;;;5078215;28;20425;-88
2021/11/22 14:09:08;;;;;;;78.80;45.53;;;;;;;;;;5076157;28;20402;-88
2021/11/22 14:11:36;;;;;;;61.22;37.30;;;;;;;;;;5085337;28;20934;-88
2021/11/22 14:14:15;;;;;;;60.22;37.17;;;;;;;;;;5061090;28;20392;-88
2021/11/22 14:16:42;;;;;;;139.13;72.43;;;;;;;;;;5083825;28;20956;-88
2021/11/22 14:19:15;;;;;;;70.43;40.67;;;;;;;;;;5082073;28;20412;-88
2021/11/22 14:21:42;;;;;;;178.23;91.85;;;;;;;;;;5084115;28;20900;-87
2021/11/22 14:24:13;;;;;;;106.30;57.00;;;;;;;;;;5076802;28;20420;-87
2021/11/22 14:26:41;;;;;;;63.17;36.63;;;;;;;;;;5080502;28;20408;-86
2021/11/22 14:29:24;;;;;;;132.40;69.45;;;;;;;;;;5080902;28;20398;-88